sensor_id;sensor_type;location;lat;lon;timestamp;P1;durP1;ratioP1;P2;durP2;ratioP2
41755;SDS011;27435;48.480;9.258;2023-04-25T00:01:13;4.70;;;2.20;;
41755;SDS011;27435;48.480;9.258;2023-04-25T00:03:38;5.43;;;2.33;;
41755;SDS011;27435;48.480;9.258;2023-04-25T00:06:05;4.77;;;2.07;;
41755;SDS011;27435;48.480;9.258;2023-04-25T00:08:31;9.10;;;2.20;;
41755;SDS011;27435;48.480;9.258;2023-04-25T00:10:58;5.40;;;2.00;;
41755;SDS011;27435;48.480;9.258;2023-04-25T00:13:24;3.53;;;1.80;;
41755;SDS011;27435;48.480;9.258;2023-04-25T00:15:50;4.73;;;1.80;;
41755;SDS011;27435;48.480;9.258;2023-04-25T00:18:18;6.97;;;2.00;;
41755;SDS011;27435;48.480;9.258;2023-04-25T00:20:44;6.17;;;2.10;;
41755;SDS011;27435;48.480;9.258;2023-04-25T00:23:12;4.80;;;2.03;;
41755;SDS011;27435;48.480;9.258;2023-04-25T00:25:43;4.27;;;1.80;;
41755;SDS011;27435;48.480;9.258;2023-04-25T00:28:09;7.10;;;2.13;;
41755;SDS011;27435;48.480;9.258;2023-04-25T00:30:36;5.07;;;1.90;;
41755;SDS011;27435;48.480;9.258;2023-04-25T00:33:01;4.93;;;2.07;;
41755;SDS011;27435;48.480;9.258;2023-04-25T00:35:27;5.40;;;2.13;;
41755;SDS011;27435;48.480;9.258;2023-04-25T00:37:53;7.27;;;2.17;;
41755;SDS011;27435;48.480;9.258;2023-04-25T00:40:19;8.80;;;2.10;;
41755;SDS011;27435;48.480;9.258;2023-04-25T00:42:45;4.67;;;2.10;;
41755;SDS011;27435;48.480;9.258;2023-04-25T00:45:12;6.23;;;2.10;;
41755;SDS011;27435;48.480;9.258;2023-04-25T00:47:40;3.73;;;1.90;;
41755;SDS011;27435;48.480;9.258;2023-04-25T00:50:06;6.03;;;1.90;;
41755;SDS011;27435;48.480;9.258;2023-04-25T00:52:32;4.47;;;1.97;;
41755;SDS011;27435;48.480;9.258;2023-04-25T00:54:58;6.80;;;2.60;;
41755;SDS011;27435;48.480;9.258;2023-04-25T00:57:24;3.70;;;2.20;;
41755;SDS011;27435;48.480;9.258;2023-04-25T00:59:51;6.20;;;2.37;;
41755;SDS011;27435;48.480;9.258;2023-04-25T01:02:17;7.63;;;2.60;;
41755;SDS011;27435;48.480;9.258;2023-04-25T01:04:44;4.40;;;2.30;;
41755;SDS011;27435;48.480;9.258;2023-04-25T01:07:10;4.37;;;2.03;;
41755;SDS011;27435;48.480;9.258;2023-04-25T01:09:35;4.77;;;2.83;;
41755;SDS011;27435;48.480;9.258;2023-04-25T01:12:01;7.47;;;2.97;;
41755;SDS011;27435;48.480;9.258;2023-04-25T01:14:27;5.20;;;2.10;;
41755;SDS011;27435;48.480;9.258;2023-04-25T01:16:54;3.80;;;2.57;;
41755;SDS011;27435;48.480;9.258;2023-04-25T01:19:20;5.97;;;2.30;;
41755;SDS011;27435;48.480;9.258;2023-04-25T01:21:46;5.57;;;2.50;;
41755;SDS011;27435;48.480;9.258;2023-04-25T01:24:12;5.67;;;2.67;;
41755;SDS011;27435;48.480;9.258;2023-04-25T01:26:38;6.13;;;2.77;;
41755;SDS011;27435;48.480;9.258;2023-04-25T01:29:09;5.67;;;2.50;;
41755;SDS011;27435;48.480;9.258;2023-04-25T01:31:35;5.80;;;2.33;;
41755;SDS011;27435;48.480;9.258;2023-04-25T01:34:01;5.50;;;2.60;;
41755;SDS011;27435;48.480;9.258;2023-04-25T01:36:27;9.70;;;2.43;;
41755;SDS011;27435;48.480;9.258;2023-04-25T01:38:53;9.80;;;2.80;;
41755;SDS011;27435;48.480;9.258;2023-04-25T01:41:20;5.80;;;2.30;;
41755;SDS011;27435;48.480;9.258;2023-04-25T01:43:48;8.40;;;2.70;;
41755;SDS011;27435;48.480;9.258;2023-04-25T01:46:14;10.17;;;2.57;;
41755;SDS011;27435;48.480;9.258;2023-04-25T01:48:39;6.07;;;2.30;;
41755;SDS011;27435;48.480;9.258;2023-04-25T01:51:05;7.03;;;2.50;;
41755;SDS011;27435;48.480;9.258;2023-04-25T01:53:31;5.93;;;2.53;;
41755;SDS011;27435;48.480;9.258;2023-04-25T01:55:57;7.00;;;2.67;;
41755;SDS011;27435;48.480;9.258;2023-04-25T01:58:22;6.03;;;2.40;;
41755;SDS011;27435;48.480;9.258;2023-04-25T02:00:48;8.27;;;2.40;;
41755;SDS011;27435;48.480;9.258;2023-04-25T02:03:13;6.90;;;2.80;;
41755;SDS011;27435;48.480;9.258;2023-04-25T02:05:39;5.33;;;2.70;;
41755;SDS011;27435;48.480;9.258;2023-04-25T02:08:06;6.53;;;2.83;;
41755;SDS011;27435;48.480;9.258;2023-04-25T02:10:33;6.83;;;2.47;;
41755;SDS011;27435;48.480;9.258;2023-04-25T02:12:59;5.53;;;2.67;;
41755;SDS011;27435;48.480;9.258;2023-04-25T02:15:25;4.07;;;2.33;;
41755;SDS011;27435;48.480;9.258;2023-04-25T02:17:51;6.20;;;2.70;;
41755;SDS011;27435;48.480;9.258;2023-04-25T02:20:22;5.13;;;2.53;;
41755;SDS011;27435;48.480;9.258;2023-04-25T02:22:49;5.97;;;2.17;;
41755;SDS011;27435;48.480;9.258;2023-04-25T02:25:16;7.30;;;2.67;;
41755;SDS011;27435;48.480;9.258;2023-04-25T02:27:42;5.47;;;2.70;;
41755;SDS011;27435;48.480;9.258;2023-04-25T02:30:08;9.80;;;2.07;;
41755;SDS011;27435;48.480;9.258;2023-04-25T02:32:34;7.10;;;2.23;;
41755;SDS011;27435;48.480;9.258;2023-04-25T02:35:00;5.33;;;2.07;;
41755;SDS011;27435;48.480;9.258;2023-04-25T02:37:29;8.03;;;2.50;;
41755;SDS011;27435;48.480;9.258;2023-04-25T02:39:55;5.37;;;2.17;;
41755;SDS011;27435;48.480;9.258;2023-04-25T02:42:21;3.93;;;2.13;;
41755;SDS011;27435;48.480;9.258;2023-04-25T02:44:46;5.07;;;2.03;;
41755;SDS011;27435;48.480;9.258;2023-04-25T02:47:12;5.20;;;2.30;;
41755;SDS011;27435;48.480;9.258;2023-04-25T02:49:37;5.87;;;2.00;;
41755;SDS011;27435;48.480;9.258;2023-04-25T02:52:03;5.47;;;2.40;;
41755;SDS011;27435;48.480;9.258;2023-04-25T02:54:29;3.77;;;2.10;;
41755;SDS011;27435;48.480;9.258;2023-04-25T02:56:55;4.50;;;2.20;;
41755;SDS011;27435;48.480;9.258;2023-04-25T02:59:21;8.20;;;2.13;;
41755;SDS011;27435;48.480;9.258;2023-04-25T03:01:46;5.47;;;2.20;;
41755;SDS011;27435;48.480;9.258;2023-04-25T03:04:12;6.37;;;2.23;;
41755;SDS011;27435;48.480;9.258;2023-04-25T03:06:38;3.53;;;1.87;;
41755;SDS011;27435;48.480;9.258;2023-04-25T03:09:03;4.37;;;2.50;;
41755;SDS011;27435;48.480;9.258;2023-04-25T03:11:29;3.97;;;2.20;;
41755;SDS011;27435;48.480;9.258;2023-04-25T03:13:55;6.43;;;2.53;;
41755;SDS011;27435;48.480;9.258;2023-04-25T03:16:21;6.10;;;2.30;;
41755;SDS011;27435;48.480;9.258;2023-04-25T03:18:47;7.57;;;2.33;;
41755;SDS011;27435;48.480;9.258;2023-04-25T03:21:12;5.67;;;1.93;;
41755;SDS011;27435;48.480;9.258;2023-04-25T03:23:38;5.37;;;2.13;;
41755;SDS011;27435;48.480;9.258;2023-04-25T03:26:03;5.33;;;2.20;;
41755;SDS011;27435;48.480;9.258;2023-04-25T03:28:29;5.60;;;2.73;;
41755;SDS011;27435;48.480;9.258;2023-04-25T03:30:55;4.17;;;1.97;;
41755;SDS011;27435;48.480;9.258;2023-04-25T03:33:20;6.80;;;1.87;;
41755;SDS011;27435;48.480;9.258;2023-04-25T03:35:46;7.13;;;2.00;;
41755;SDS011;27435;48.480;9.258;2023-04-25T03:38:12;3.77;;;2.10;;
41755;SDS011;27435;48.480;9.258;2023-04-25T03:40:37;6.33;;;2.03;;
41755;SDS011;27435;48.480;9.258;2023-04-25T03:43:03;3.13;;;1.90;;
41755;SDS011;27435;48.480;9.258;2023-04-25T03:45:29;4.53;;;2.00;;
41755;SDS011;27435;48.480;9.258;2023-04-25T03:47:54;5.00;;;2.07;;
41755;SDS011;27435;48.480;9.258;2023-04-25T03:50:20;7.93;;;2.10;;
41755;SDS011;27435;48.480;9.258;2023-04-25T03:52:46;4.23;;;2.03;;
41755;SDS011;27435;48.480;9.258;2023-04-25T03:55:11;4.90;;;2.50;;
41755;SDS011;27435;48.480;9.258;2023-04-25T03:57:37;4.60;;;1.70;;
41755;SDS011;27435;48.480;9.258;2023-04-25T04:00:03;6.00;;;1.90;;
41755;SDS011;27435;48.480;9.258;2023-04-25T04:02:29;4.87;;;2.07;;
41755;SDS011;27435;48.480;9.258;2023-04-25T04:04:55;3.90;;;1.97;;
41755;SDS011;27435;48.480;9.258;2023-04-25T04:07:21;5.13;;;2.27;;
41755;SDS011;27435;48.480;9.258;2023-04-25T04:09:47;5.20;;;2.00;;
41755;SDS011;27435;48.480;9.258;2023-04-25T04:12:12;5.63;;;2.03;;
41755;SDS011;27435;48.480;9.258;2023-04-25T04:14:38;4.43;;;1.97;;
41755;SDS011;27435;48.480;9.258;2023-04-25T04:17:04;6.30;;;1.80;;
41755;SDS011;27435;48.480;9.258;2023-04-25T04:19:30;4.50;;;2.07;;
41755;SDS011;27435;48.480;9.258;2023-04-25T04:21:56;4.53;;;1.70;;
41755;SDS011;27435;48.480;9.258;2023-04-25T04:24:22;7.03;;;2.83;;
41755;SDS011;27435;48.480;9.258;2023-04-25T04:26:47;8.63;;;1.77;;
41755;SDS011;27435;48.480;9.258;2023-04-25T04:29:13;5.57;;;2.00;;
41755;SDS011;27435;48.480;9.258;2023-04-25T04:31:46;11.27;;;1.90;;
41755;SDS011;27435;48.480;9.258;2023-04-25T04:34:13;7.93;;;2.27;;
41755;SDS011;27435;48.480;9.258;2023-04-25T04:36:38;7.40;;;2.77;;
41755;SDS011;27435;48.480;9.258;2023-04-25T04:39:05;4.80;;;2.30;;
41755;SDS011;27435;48.480;9.258;2023-04-25T04:41:31;3.97;;;1.90;;
41755;SDS011;27435;48.480;9.258;2023-04-25T04:43:57;9.03;;;2.53;;
41755;SDS011;27435;48.480;9.258;2023-04-25T04:46:22;9.40;;;2.10;;
41755;SDS011;27435;48.480;9.258;2023-04-25T04:48:49;5.37;;;2.37;;
41755;SDS011;27435;48.480;9.258;2023-04-25T04:51:15;5.30;;;2.20;;
41755;SDS011;27435;48.480;9.258;2023-04-25T04:53:40;6.07;;;2.17;;
41755;SDS011;27435;48.480;9.258;2023-04-25T04:56:06;7.03;;;1.90;;
41755;SDS011;27435;48.480;9.258;2023-04-25T04:58:31;7.13;;;2.67;;
41755;SDS011;27435;48.480;9.258;2023-04-25T05:00:58;7.37;;;2.37;;
41755;SDS011;27435;48.480;9.258;2023-04-25T05:03:23;4.57;;;1.90;;
41755;SDS011;27435;48.480;9.258;2023-04-25T05:05:49;5.40;;;2.30;;
41755;SDS011;27435;48.480;9.258;2023-04-25T05:08:15;8.17;;;2.50;;
41755;SDS011;27435;48.480;9.258;2023-04-25T05:10:40;6.23;;;2.33;;
41755;SDS011;27435;48.480;9.258;2023-04-25T05:13:06;6.20;;;2.40;;
41755;SDS011;27435;48.480;9.258;2023-04-25T05:15:32;6.07;;;2.40;;
41755;SDS011;27435;48.480;9.258;2023-04-25T05:17:58;8.07;;;2.43;;
41755;SDS011;27435;48.480;9.258;2023-04-25T05:20:23;4.50;;;2.20;;
41755;SDS011;27435;48.480;9.258;2023-04-25T05:22:49;5.17;;;2.70;;
41755;SDS011;27435;48.480;9.258;2023-04-25T05:25:14;7.77;;;2.90;;
41755;SDS011;27435;48.480;9.258;2023-04-25T05:27:40;7.20;;;2.97;;
41755;SDS011;27435;48.480;9.258;2023-04-25T05:30:06;10.20;;;2.60;;
41755;SDS011;27435;48.480;9.258;2023-04-25T05:32:32;7.23;;;2.10;;
41755;SDS011;27435;48.480;9.258;2023-04-25T05:34:58;9.80;;;2.63;;
41755;SDS011;27435;48.480;9.258;2023-04-25T05:37:24;4.67;;;2.07;;
41755;SDS011;27435;48.480;9.258;2023-04-25T05:39:50;6.63;;;2.10;;
41755;SDS011;27435;48.480;9.258;2023-04-25T05:42:15;7.50;;;2.23;;
41755;SDS011;27435;48.480;9.258;2023-04-25T05:44:41;4.93;;;2.30;;
41755;SDS011;27435;48.480;9.258;2023-04-25T05:47:07;6.37;;;2.17;;
41755;SDS011;27435;48.480;9.258;2023-04-25T05:49:33;4.17;;;2.23;;
41755;SDS011;27435;48.480;9.258;2023-04-25T05:51:59;8.77;;;2.20;;
41755;SDS011;27435;48.480;9.258;2023-04-25T05:54:25;3.63;;;1.70;;
41755;SDS011;27435;48.480;9.258;2023-04-25T05:56:50;3.93;;;2.40;;
41755;SDS011;27435;48.480;9.258;2023-04-25T05:59:17;4.33;;;1.77;;
41755;SDS011;27435;48.480;9.258;2023-04-25T06:01:43;5.50;;;1.70;;
41755;SDS011;27435;48.480;9.258;2023-04-25T06:04:08;5.17;;;1.60;;
41755;SDS011;27435;48.480;9.258;2023-04-25T06:06:34;9.33;;;1.93;;
41755;SDS011;27435;48.480;9.258;2023-04-25T06:08:59;3.57;;;1.67;;
41755;SDS011;27435;48.480;9.258;2023-04-25T06:11:25;6.40;;;1.93;;
41755;SDS011;27435;48.480;9.258;2023-04-25T06:13:51;4.43;;;2.03;;
41755;SDS011;27435;48.480;9.258;2023-04-25T06:16:17;6.57;;;3.23;;
41755;SDS011;27435;48.480;9.258;2023-04-25T06:18:42;4.13;;;2.00;;
41755;SDS011;27435;48.480;9.258;2023-04-25T06:21:08;5.30;;;2.03;;
41755;SDS011;27435;48.480;9.258;2023-04-25T06:23:33;4.83;;;2.00;;
41755;SDS011;27435;48.480;9.258;2023-04-25T06:25:59;4.13;;;2.00;;
41755;SDS011;27435;48.480;9.258;2023-04-25T06:28:25;4.57;;;2.07;;
41755;SDS011;27435;48.480;9.258;2023-04-25T06:30:50;3.50;;;1.83;;
41755;SDS011;27435;48.480;9.258;2023-04-25T06:33:16;5.30;;;2.00;;
41755;SDS011;27435;48.480;9.258;2023-04-25T06:35:42;6.40;;;2.00;;
41755;SDS011;27435;48.480;9.258;2023-04-25T06:38:07;6.30;;;2.47;;
41755;SDS011;27435;48.480;9.258;2023-04-25T06:40:33;4.73;;;1.97;;
41755;SDS011;27435;48.480;9.258;2023-04-25T06:42:59;3.27;;;1.80;;
41755;SDS011;27435;48.480;9.258;2023-04-25T06:45:25;5.47;;;1.90;;
41755;SDS011;27435;48.480;9.258;2023-04-25T06:47:50;7.63;;;2.10;;
41755;SDS011;27435;48.480;9.258;2023-04-25T06:50:16;4.27;;;1.80;;
41755;SDS011;27435;48.480;9.258;2023-04-25T06:52:41;5.33;;;2.23;;
41755;SDS011;27435;48.480;9.258;2023-04-25T06:55:07;7.90;;;2.27;;
41755;SDS011;27435;48.480;9.258;2023-04-25T06:57:33;6.57;;;2.37;;
41755;SDS011;27435;48.480;9.258;2023-04-25T06:59:59;5.87;;;2.43;;
41755;SDS011;27435;48.480;9.258;2023-04-25T07:02:24;7.07;;;2.10;;
41755;SDS011;27435;48.480;9.258;2023-04-25T07:04:50;7.30;;;1.93;;
41755;SDS011;27435;48.480;9.258;2023-04-25T07:07:16;3.70;;;1.90;;
41755;SDS011;27435;48.480;9.258;2023-04-25T07:09:42;5.10;;;1.93;;
41755;SDS011;27435;48.480;9.258;2023-04-25T07:12:07;9.43;;;1.73;;
41755;SDS011;27435;48.480;9.258;2023-04-25T07:14:33;7.07;;;2.27;;
41755;SDS011;27435;48.480;9.258;2023-04-25T07:16:58;3.63;;;1.70;;
41755;SDS011;27435;48.480;9.258;2023-04-25T07:19:24;5.67;;;1.80;;
41755;SDS011;27435;48.480;9.258;2023-04-25T07:21:51;4.00;;;1.50;;
41755;SDS011;27435;48.480;9.258;2023-04-25T07:24:17;4.27;;;2.10;;
41755;SDS011;27435;48.480;9.258;2023-04-25T07:26:43;4.30;;;2.37;;
41755;SDS011;27435;48.480;9.258;2023-04-25T07:29:09;3.70;;;1.50;;
41755;SDS011;27435;48.480;9.258;2023-04-25T07:31:35;6.73;;;2.00;;
41755;SDS011;27435;48.480;9.258;2023-04-25T07:34:01;5.77;;;2.47;;
41755;SDS011;27435;48.480;9.258;2023-04-25T07:36:26;4.27;;;1.40;;
41755;SDS011;27435;48.480;9.258;2023-04-25T07:38:52;4.40;;;2.00;;
41755;SDS011;27435;48.480;9.258;2023-04-25T07:41:17;4.03;;;1.80;;
41755;SDS011;27435;48.480;9.258;2023-04-25T07:43:43;5.57;;;2.10;;
41755;SDS011;27435;48.480;9.258;2023-04-25T07:46:09;4.67;;;2.10;;
41755;SDS011;27435;48.480;9.258;2023-04-25T07:48:34;3.90;;;1.83;;
41755;SDS011;27435;48.480;9.258;2023-04-25T07:51:00;3.57;;;1.77;;
41755;SDS011;27435;48.480;9.258;2023-04-25T07:53:25;3.60;;;1.97;;
41755;SDS011;27435;48.480;9.258;2023-04-25T07:55:51;4.87;;;2.33;;
41755;SDS011;27435;48.480;9.258;2023-04-25T07:58:17;5.40;;;2.00;;
41755;SDS011;27435;48.480;9.258;2023-04-25T08:00:47;4.93;;;2.00;;
41755;SDS011;27435;48.480;9.258;2023-04-25T08:03:13;3.63;;;2.07;;
41755;SDS011;27435;48.480;9.258;2023-04-25T08:05:38;7.47;;;2.63;;
41755;SDS011;27435;48.480;9.258;2023-04-25T08:08:04;4.87;;;2.93;;
41755;SDS011;27435;48.480;9.258;2023-04-25T08:10:31;4.47;;;2.20;;
41755;SDS011;27435;48.480;9.258;2023-04-25T08:12:57;6.20;;;2.37;;
41755;SDS011;27435;48.480;9.258;2023-04-25T08:15:23;3.97;;;2.40;;
41755;SDS011;27435;48.480;9.258;2023-04-25T08:17:50;12.53;;;2.90;;
41755;SDS011;27435;48.480;9.258;2023-04-25T08:20:15;6.93;;;3.50;;
41755;SDS011;27435;48.480;9.258;2023-04-25T08:22:41;5.37;;;2.20;;
41755;SDS011;27435;48.480;9.258;2023-04-25T08:25:07;4.30;;;2.50;;
41755;SDS011;27435;48.480;9.258;2023-04-25T08:27:33;6.60;;;2.97;;
41755;SDS011;27435;48.480;9.258;2023-04-25T08:29:59;7.63;;;2.60;;
41755;SDS011;27435;48.480;9.258;2023-04-25T08:32:24;4.90;;;2.27;;
41755;SDS011;27435;48.480;9.258;2023-04-25T08:34:50;4.73;;;2.57;;
41755;SDS011;27435;48.480;9.258;2023-04-25T08:37:19;6.17;;;2.57;;
41755;SDS011;27435;48.480;9.258;2023-04-25T08:39:45;7.87;;;3.07;;
41755;SDS011;27435;48.480;9.258;2023-04-25T08:42:13;7.50;;;2.90;;
41755;SDS011;27435;48.480;9.258;2023-04-25T08:44:40;4.67;;;2.73;;
41755;SDS011;27435;48.480;9.258;2023-04-25T08:47:06;7.70;;;2.60;;
41755;SDS011;27435;48.480;9.258;2023-04-25T08:49:32;7.10;;;3.03;;
41755;SDS011;27435;48.480;9.258;2023-04-25T08:52:00;5.57;;;2.77;;
41755;SDS011;27435;48.480;9.258;2023-04-25T08:54:27;4.50;;;2.50;;
41755;SDS011;27435;48.480;9.258;2023-04-25T08:56:54;5.77;;;3.20;;
41755;SDS011;27435;48.480;9.258;2023-04-25T08:59:22;5.13;;;2.73;;
41755;SDS011;27435;48.480;9.258;2023-04-25T09:01:51;8.17;;;3.27;;
41755;SDS011;27435;48.480;9.258;2023-04-25T09:04:17;6.67;;;3.30;;
41755;SDS011;27435;48.480;9.258;2023-04-25T09:06:43;5.93;;;3.47;;
41755;SDS011;27435;48.480;9.258;2023-04-25T09:09:09;6.47;;;3.33;;
41755;SDS011;27435;48.480;9.258;2023-04-25T09:11:36;5.03;;;3.30;;
41755;SDS011;27435;48.480;9.258;2023-04-25T09:14:12;7.30;;;3.93;;
41755;SDS011;27435;48.480;9.258;2023-04-25T09:21:55;6.97;;;3.67;;
41755;SDS011;27435;48.480;9.258;2023-04-25T09:24:42;6.60;;;3.97;;
41755;SDS011;27435;48.480;9.258;2023-04-25T09:27:09;6.67;;;4.40;;
41755;SDS011;27435;48.480;9.258;2023-04-25T09:29:37;6.70;;;3.33;;
41755;SDS011;27435;48.480;9.258;2023-04-25T09:32:19;4.10;;;2.30;;
41755;SDS011;27435;48.480;9.258;2023-04-25T09:34:53;3.53;;;2.23;;
41755;SDS011;27435;48.480;9.258;2023-04-25T09:37:30;4.50;;;2.20;;
41755;SDS011;27435;48.480;9.258;2023-04-25T09:39:56;3.45;;;1.85;;
41755;SDS011;27435;48.480;9.258;2023-04-25T09:42:27;5.97;;;3.10;;
41755;SDS011;27435;48.480;9.258;2023-04-25T09:44:54;2.97;;;1.80;;
41755;SDS011;27435;48.480;9.258;2023-04-25T09:47:22;3.17;;;1.60;;
41755;SDS011;27435;48.480;9.258;2023-04-25T09:49:54;2.77;;;0.90;;
41755;SDS011;27435;48.480;9.258;2023-04-25T09:52:21;2.53;;;0.90;;
41755;SDS011;27435;48.480;9.258;2023-04-25T09:54:48;1.60;;;0.80;;
41755;SDS011;27435;48.480;9.258;2023-04-25T09:57:16;2.90;;;1.00;;
41755;SDS011;27435;48.480;9.258;2023-04-25T09:59:44;1.93;;;0.73;;
41755;SDS011;27435;48.480;9.258;2023-04-25T10:02:10;1.80;;;1.00;;
41755;SDS011;27435;48.480;9.258;2023-04-25T10:04:37;2.70;;;1.00;;
41755;SDS011;27435;48.480;9.258;2023-04-25T10:07:05;1.87;;;0.90;;
41755;SDS011;27435;48.480;9.258;2023-04-25T10:09:32;1.83;;;0.80;;
41755;SDS011;27435;48.480;9.258;2023-04-25T10:11:59;1.77;;;0.77;;
41755;SDS011;27435;48.480;9.258;2023-04-25T10:14:25;1.20;;;0.53;;
41755;SDS011;27435;48.480;9.258;2023-04-25T10:16:51;1.70;;;0.67;;
41755;SDS011;27435;48.480;9.258;2023-04-25T10:19:19;1.37;;;0.80;;
41755;SDS011;27435;48.480;9.258;2023-04-25T10:21:50;1.23;;;0.60;;
41755;SDS011;27435;48.480;9.258;2023-04-25T10:24:17;1.37;;;0.73;;
41755;SDS011;27435;48.480;9.258;2023-04-25T10:26:44;1.50;;;1.00;;
41755;SDS011;27435;48.480;9.258;2023-04-25T10:29:10;2.93;;;1.13;;
41755;SDS011;27435;48.480;9.258;2023-04-25T10:31:45;1.30;;;0.60;;
41755;SDS011;27435;48.480;9.258;2023-04-25T10:34:12;2.00;;;0.93;;
41755;SDS011;27435;48.480;9.258;2023-04-25T10:36:38;2.70;;;0.90;;
41755;SDS011;27435;48.480;9.258;2023-04-25T10:39:04;2.37;;;1.13;;
41755;SDS011;27435;48.480;9.258;2023-04-25T10:41:32;3.43;;;1.97;;
41755;SDS011;27435;48.480;9.258;2023-04-25T10:44:11;2.53;;;1.43;;
41755;SDS011;27435;48.480;9.258;2023-04-25T10:46:37;3.07;;;1.30;;
41755;SDS011;27435;48.480;9.258;2023-04-25T10:49:02;1.60;;;0.90;;
41755;SDS011;27435;48.480;9.258;2023-04-25T10:51:32;4.27;;;1.20;;
41755;SDS011;27435;48.480;9.258;2023-04-25T10:54:05;1.93;;;0.90;;
41755;SDS011;27435;48.480;9.258;2023-04-25T11:01:35;1.60;;;0.70;;
41755;SDS011;27435;48.480;9.258;2023-04-25T11:04:28;2.43;;;0.70;;
41755;SDS011;27435;48.480;9.258;2023-04-25T11:09:51;2.30;;;0.90;;
41755;SDS011;27435;48.480;9.258;2023-04-25T11:12:17;1.57;;;0.57;;
41755;SDS011;27435;48.480;9.258;2023-04-25T11:14:43;1.20;;;0.60;;
41755;SDS011;27435;48.480;9.258;2023-04-25T11:17:08;1.47;;;0.67;;
41755;SDS011;27435;48.480;9.258;2023-04-25T11:19:36;1.00;;;0.50;;
41755;SDS011;27435;48.480;9.258;2023-04-25T11:22:02;1.10;;;0.40;;
41755;SDS011;27435;48.480;9.258;2023-04-25T11:24:32;1.60;;;0.50;;
41755;SDS011;27435;48.480;9.258;2023-04-25T11:27:04;1.67;;;0.60;;
41755;SDS011;27435;48.480;9.258;2023-04-25T11:29:34;0.53;;;0.37;;
41755;SDS011;27435;48.480;9.258;2023-04-25T11:32:00;0.80;;;0.40;;
41755;SDS011;27435;48.480;9.258;2023-04-25T11:34:27;0.57;;;0.30;;
41755;SDS011;27435;48.480;9.258;2023-04-25T11:36:57;0.53;;;0.30;;
41755;SDS011;27435;48.480;9.258;2023-04-25T11:39:25;1.00;;;0.50;;
41755;SDS011;27435;48.480;9.258;2023-04-25T11:41:51;1.00;;;0.40;;
41755;SDS011;27435;48.480;9.258;2023-04-25T11:44:18;0.77;;;0.30;;
41755;SDS011;27435;48.480;9.258;2023-04-25T11:46:44;1.33;;;0.30;;
41755;SDS011;27435;48.480;9.258;2023-04-25T11:49:11;0.63;;;0.30;;
41755;SDS011;27435;48.480;9.258;2023-04-25T11:51:38;0.40;;;0.20;;
41755;SDS011;27435;48.480;9.258;2023-04-25T11:54:08;1.73;;;0.50;;
41755;SDS011;27435;48.480;9.258;2023-04-25T11:56:33;0.50;;;0.30;;
41755;SDS011;27435;48.480;9.258;2023-04-25T11:59:03;0.83;;;0.40;;
41755;SDS011;27435;48.480;9.258;2023-04-25T12:04:19;1.10;;;0.50;;
41755;SDS011;27435;48.480;9.258;2023-04-25T12:06:47;2.57;;;0.73;;
41755;SDS011;27435;48.480;9.258;2023-04-25T12:09:15;0.63;;;0.50;;
41755;SDS011;27435;48.480;9.258;2023-04-25T12:11:56;7.43;;;1.67;;
41755;SDS011;27435;48.480;9.258;2023-04-25T12:14:28;2.23;;;0.77;;
41755;SDS011;27435;48.480;9.258;2023-04-25T12:16:58;0.93;;;0.40;;
41755;SDS011;27435;48.480;9.258;2023-04-25T12:19:24;1.40;;;0.80;;
41755;SDS011;27435;48.480;9.258;2023-04-25T12:21:51;0.83;;;0.43;;
41755;SDS011;27435;48.480;9.258;2023-04-25T12:24:18;0.70;;;0.33;;
41755;SDS011;27435;48.480;9.258;2023-04-25T12:26:53;0.83;;;0.40;;
41755;SDS011;27435;48.480;9.258;2023-04-25T12:29:25;0.95;;;0.40;;
41755;SDS011;27435;48.480;9.258;2023-04-25T12:31:52;1.57;;;0.60;;
41755;SDS011;27435;48.480;9.258;2023-04-25T12:34:19;0.60;;;0.40;;
41755;SDS011;27435;48.480;9.258;2023-04-25T12:36:47;0.90;;;0.50;;
41755;SDS011;27435;48.480;9.258;2023-04-25T12:41:52;2.33;;;0.67;;
41755;SDS011;27435;48.480;9.258;2023-04-25T12:44:21;0.93;;;0.50;;
41755;SDS011;27435;48.480;9.258;2023-04-25T12:46:47;0.80;;;0.50;;
41755;SDS011;27435;48.480;9.258;2023-04-25T12:49:13;0.70;;;0.40;;
41755;SDS011;27435;48.480;9.258;2023-04-25T12:51:39;1.27;;;0.50;;
41755;SDS011;27435;48.480;9.258;2023-04-25T12:54:06;1.00;;;0.50;;
41755;SDS011;27435;48.480;9.258;2023-04-25T12:56:33;1.90;;;1.10;;
41755;SDS011;27435;48.480;9.258;2023-04-25T12:59:00;3.63;;;1.27;;
41755;SDS011;27435;48.480;9.258;2023-04-25T13:01:25;1.63;;;0.70;;
41755;SDS011;27435;48.480;9.258;2023-04-25T13:03:51;1.90;;;0.90;;
41755;SDS011;27435;48.480;9.258;2023-04-25T13:06:18;0.90;;;0.60;;
41755;SDS011;27435;48.480;9.258;2023-04-25T13:08:44;1.70;;;0.80;;
41755;SDS011;27435;48.480;9.258;2023-04-25T13:11:11;1.43;;;0.73;;
41755;SDS011;27435;48.480;9.258;2023-04-25T13:13:37;1.70;;;0.90;;
41755;SDS011;27435;48.480;9.258;2023-04-25T13:16:03;1.53;;;0.77;;
41755;SDS011;27435;48.480;9.258;2023-04-25T13:18:30;2.10;;;0.70;;
41755;SDS011;27435;48.480;9.258;2023-04-25T13:20:56;1.40;;;0.67;;
41755;SDS011;27435;48.480;9.258;2023-04-25T13:23:22;2.00;;;0.97;;
41755;SDS011;27435;48.480;9.258;2023-04-25T13:25:48;2.60;;;1.20;;
41755;SDS011;27435;48.480;9.258;2023-04-25T13:28:14;4.63;;;1.90;;
41755;SDS011;27435;48.480;9.258;2023-04-25T13:30:41;2.70;;;1.10;;
41755;SDS011;27435;48.480;9.258;2023-04-25T13:33:07;1.93;;;1.10;;
41755;SDS011;27435;48.480;9.258;2023-04-25T13:35:33;1.30;;;0.80;;
41755;SDS011;27435;48.480;9.258;2023-04-25T13:38:00;2.03;;;1.03;;
41755;SDS011;27435;48.480;9.258;2023-04-25T13:40:26;1.63;;;0.80;;
41755;SDS011;27435;48.480;9.258;2023-04-25T13:42:52;3.63;;;1.10;;
41755;SDS011;27435;48.480;9.258;2023-04-25T13:45:18;3.73;;;1.17;;
41755;SDS011;27435;48.480;9.258;2023-04-25T13:47:44;3.27;;;1.00;;
41755;SDS011;27435;48.480;9.258;2023-04-25T13:50:10;1.83;;;0.80;;
41755;SDS011;27435;48.480;9.258;2023-04-25T13:52:36;2.70;;;0.80;;
41755;SDS011;27435;48.480;9.258;2023-04-25T13:55:01;1.70;;;0.90;;
41755;SDS011;27435;48.480;9.258;2023-04-25T13:57:28;3.20;;;1.50;;
41755;SDS011;27435;48.480;9.258;2023-04-25T13:59:57;3.47;;;1.20;;
41755;SDS011;27435;48.480;9.258;2023-04-25T14:02:22;2.07;;;1.00;;
41755;SDS011;27435;48.480;9.258;2023-04-25T14:04:48;1.47;;;0.90;;
41755;SDS011;27435;48.480;9.258;2023-04-25T14:07:14;1.80;;;1.10;;
41755;SDS011;27435;48.480;9.258;2023-04-25T14:09:44;6.13;;;1.20;;
41755;SDS011;27435;48.480;9.258;2023-04-25T14:12:10;1.73;;;1.00;;
41755;SDS011;27435;48.480;9.258;2023-04-25T14:14:36;2.23;;;1.50;;
41755;SDS011;27435;48.480;9.258;2023-04-25T14:17:02;2.20;;;1.10;;
41755;SDS011;27435;48.480;9.258;2023-04-25T14:19:28;3.17;;;1.07;;
41755;SDS011;27435;48.480;9.258;2023-04-25T14:21:54;2.23;;;0.80;;
41755;SDS011;27435;48.480;9.258;2023-04-25T14:24:20;1.93;;;1.10;;
41755;SDS011;27435;48.480;9.258;2023-04-25T14:26:45;1.53;;;0.97;;
41755;SDS011;27435;48.480;9.258;2023-04-25T14:29:11;2.60;;;1.10;;
41755;SDS011;27435;48.480;9.258;2023-04-25T14:31:37;2.23;;;1.30;;
41755;SDS011;27435;48.480;9.258;2023-04-25T14:34:06;3.43;;;1.60;;
41755;SDS011;27435;48.480;9.258;2023-04-25T14:36:33;2.23;;;1.13;;
41755;SDS011;27435;48.480;9.258;2023-04-25T14:38:59;2.47;;;1.40;;
41755;SDS011;27435;48.480;9.258;2023-04-25T14:41:25;3.53;;;1.60;;
41755;SDS011;27435;48.480;9.258;2023-04-25T14:43:51;4.00;;;1.90;;
41755;SDS011;27435;48.480;9.258;2023-04-25T14:46:17;3.13;;;1.70;;
41755;SDS011;27435;48.480;9.258;2023-04-25T14:48:44;2.47;;;1.60;;
41755;SDS011;27435;48.480;9.258;2023-04-25T14:51:10;2.70;;;1.80;;
41755;SDS011;27435;48.480;9.258;2023-04-25T14:53:36;2.87;;;1.70;;
41755;SDS011;27435;48.480;9.258;2023-04-25T14:56:02;3.50;;;1.95;;
41755;SDS011;27435;48.480;9.258;2023-04-25T14:58:28;3.55;;;1.60;;
41755;SDS011;27435;48.480;9.258;2023-04-25T15:00:54;3.42;;;1.90;;
41755;SDS011;27435;48.480;9.258;2023-04-25T15:03:19;3.63;;;2.00;;